createdAt,value
2023-04-29T00:02:49.950Z,13.65
2023-04-29T00:05:51.887Z,13.59
2023-04-29T00:08:53.664Z,13.68
2023-04-29T00:11:55.535Z,13.69
2023-04-29T00:14:57.315Z,13.75
2023-04-29T00:17:59.015Z,13.85
2023-04-29T00:21:00.787Z,13.90
2023-04-29T00:24:02.482Z,13.99
2023-04-29T00:27:04.130Z,14.02
2023-04-29T00:30:08.298Z,14.19
2023-04-29T00:33:10.166Z,14.24
2023-04-29T00:36:11.851Z,14.10
2023-04-29T00:39:15.221Z,14.08
2023-04-29T00:42:17.244Z,13.97
2023-04-29T00:45:18.989Z,13.96
2023-04-29T00:48:20.675Z,13.85
2023-04-29T00:51:22.666Z,13.93
2023-04-29T00:54:24.481Z,13.92
2023-04-29T00:57:29.110Z,13.92
2023-04-29T01:00:31.258Z,14.03
2023-04-29T01:03:33.198Z,13.96
2023-04-29T01:07:07.252Z,13.94
2023-04-29T01:10:16.874Z,13.90
2023-04-29T01:13:24.801Z,13.84
2023-04-29T01:16:35.190Z,13.77
2023-04-29T01:19:58.560Z,13.65
2023-04-29T01:23:00.601Z,13.64
2023-04-29T01:26:02.559Z,13.65
2023-04-29T01:29:59.865Z,13.60
2023-04-29T01:33:17.894Z,13.61
2023-04-29T01:36:31.641Z,13.53
2023-04-29T01:39:36.108Z,13.52
2023-04-29T01:43:05.608Z,13.52
2023-04-29T01:46:10.017Z,13.45
2023-04-29T01:49:12.873Z,13.52
2023-04-29T01:52:15.358Z,13.45
2023-04-29T01:55:25.831Z,13.39
2023-04-29T01:58:45.481Z,13.41
2023-04-29T02:02:06.092Z,13.50
2023-04-29T02:05:11.179Z,13.46
2023-04-29T02:08:17.724Z,13.43
2023-04-29T02:11:21.244Z,13.46
2023-04-29T02:14:23.080Z,13.45
2023-04-29T02:17:26.269Z,13.47
2023-04-29T02:20:28.396Z,13.52
2023-04-29T02:23:31.256Z,13.52
2023-04-29T02:26:34.157Z,13.54
2023-04-29T02:29:35.743Z,13.54
2023-04-29T02:32:39.390Z,13.54
2023-04-29T02:35:41.042Z,13.57
2023-04-29T02:38:42.734Z,13.60
2023-04-29T02:41:44.368Z,13.60
2023-04-29T02:44:46.394Z,13.60
2023-04-29T02:47:48.362Z,13.63
2023-04-29T02:50:50.215Z,13.62
2023-04-29T02:53:52.113Z,13.55
2023-04-29T02:56:53.890Z,13.51
2023-04-29T02:59:55.724Z,13.42
2023-04-29T03:02:57.852Z,13.36
2023-04-29T03:05:59.635Z,13.31
2023-04-29T03:09:01.409Z,13.28
2023-04-29T03:12:03.247Z,13.25
2023-04-29T03:15:07.913Z,13.11
2023-04-29T03:18:09.775Z,13.12
2023-04-29T03:21:11.670Z,13.06
2023-04-29T03:24:13.478Z,13.05
2023-04-29T03:27:15.293Z,12.99
2023-04-29T03:30:17.970Z,12.90
2023-04-29T03:33:24.441Z,12.79
2023-04-29T03:36:26.580Z,12.69
2023-04-29T03:39:48.483Z,12.56
2023-04-29T03:42:50.329Z,12.69
2023-04-29T03:45:54.322Z,12.66
2023-04-29T03:48:58.277Z,12.59
2023-04-29T03:52:00.462Z,12.49
2023-04-29T03:55:02.814Z,12.47
2023-04-29T03:58:04.821Z,12.34
2023-04-29T04:01:06.971Z,12.36
2023-04-29T04:04:18.292Z,12.31
2023-04-29T04:07:23.163Z,12.26
2023-04-29T04:10:54.246Z,12.15
2023-04-29T04:14:05.793Z,12.06
2023-04-29T04:17:07.642Z,11.93
2023-04-29T04:20:13.234Z,11.84
2023-04-29T04:23:14.943Z,11.72
2023-04-29T04:26:18.688Z,11.61
2023-04-29T04:29:34.194Z,11.52
2023-04-29T04:32:47.183Z,11.43
2023-04-29T04:35:49.184Z,11.35
2023-04-29T04:38:50.916Z,11.32
2023-04-29T04:41:52.674Z,11.26
2023-04-29T04:44:55.476Z,11.18
2023-04-29T04:48:16.722Z,11.13
2023-04-29T04:51:23.581Z,11.04
2023-04-29T04:54:25.264Z,11.06
2023-04-29T04:57:35.989Z,10.98
2023-04-29T05:00:38.128Z,10.99
2023-04-29T05:03:40.101Z,10.88
2023-04-29T05:06:42.206Z,10.82
2023-04-29T05:09:43.905Z,10.85
2023-04-29T05:12:45.624Z,10.80
2023-04-29T05:15:47.329Z,10.66
2023-04-29T05:18:54.590Z,10.75
2023-04-29T05:21:59.078Z,10.77
2023-04-29T05:25:03.283Z,10.79
2023-04-29T05:28:07.415Z,10.77
2023-04-29T05:31:11.557Z,10.81
2023-04-29T05:34:13.409Z,10.82
2023-04-29T05:37:16.056Z,10.89
2023-04-29T05:40:40.819Z,10.87
2023-04-29T05:44:01.584Z,10.88
2023-04-29T05:47:03.267Z,10.85
2023-04-29T05:50:06.011Z,10.83
2023-04-29T05:53:07.744Z,10.85
2023-04-29T05:56:09.773Z,10.85
2023-04-29T05:59:11.976Z,10.82
2023-04-29T06:02:14.695Z,10.84
2023-04-29T06:05:17.767Z,10.88
2023-04-29T06:08:52.010Z,10.82
2023-04-29T06:11:59.522Z,10.90
2023-04-29T06:15:01.410Z,10.83
2023-04-29T06:18:03.410Z,11.00
2023-04-29T06:21:05.521Z,11.02
2023-04-29T06:24:07.924Z,11.08
2023-04-29T06:27:10.846Z,11.16
2023-04-29T06:30:13.062Z,11.29
2023-04-29T06:33:14.714Z,11.50
2023-04-29T06:36:16.840Z,11.54
2023-04-29T06:39:37.179Z,11.68
2023-04-29T06:42:57.345Z,11.89
2023-04-29T06:46:22.086Z,12.06
2023-04-29T06:49:38.752Z,12.14
2023-04-29T06:52:41.169Z,12.30
2023-04-29T06:55:45.348Z,12.28
2023-04-29T06:58:47.675Z,12.27
2023-04-29T07:01:50.011Z,12.21
2023-04-29T07:04:54.834Z,12.29
2023-04-29T07:07:56.718Z,12.32
2023-04-29T07:11:00.173Z,12.30
2023-04-29T07:14:01.959Z,12.36
2023-04-29T07:17:05.443Z,12.62
2023-04-29T07:20:07.769Z,13.06
2023-04-29T07:23:09.738Z,13.40
2023-04-29T07:26:16.607Z,13.60
2023-04-29T07:29:20.467Z,13.70
2023-04-29T07:32:22.702Z,14.12
2023-04-29T07:35:24.434Z,14.29
2023-04-29T07:38:26.348Z,14.10
2023-04-29T07:41:28.755Z,14.09
2023-04-29T07:44:30.372Z,14.39
2023-04-29T07:47:32.385Z,14.99
2023-04-29T07:50:37.532Z,15.18
2023-04-29T07:53:39.084Z,14.99
2023-04-29T07:56:40.785Z,15.57
2023-04-29T07:59:42.708Z,15.75
2023-04-29T08:02:45.110Z,15.87
2023-04-29T08:05:51.509Z,15.30
2023-04-29T08:08:53.197Z,15.15
2023-04-29T08:11:54.970Z,15.33
2023-04-29T08:14:56.602Z,15.22
2023-04-29T08:17:58.289Z,14.78
2023-04-29T08:20:59.979Z,14.67
2023-04-29T08:24:01.609Z,14.65
2023-04-29T08:27:03.721Z,14.70
2023-04-29T08:30:06.533Z,14.83
2023-04-29T08:33:08.434Z,15.06
2023-04-29T08:36:10.169Z,15.53
2023-04-29T08:39:11.842Z,15.16
2023-04-29T08:42:13.571Z,14.51
2023-04-29T08:45:19.978Z,14.57
2023-04-29T08:48:22.479Z,14.77
2023-04-29T08:51:24.624Z,14.67
2023-04-29T08:54:28.759Z,14.89
2023-04-29T08:57:39.515Z,14.72
2023-04-29T09:00:43.493Z,14.60
2023-04-29T09:04:01.766Z,14.56
2023-04-29T09:07:05.620Z,14.50
2023-04-29T09:10:08.117Z,14.61
2023-04-29T09:13:09.798Z,14.80
2023-04-29T09:16:12.644Z,14.90
2023-04-29T09:19:31.018Z,14.95
2023-04-29T09:22:48.435Z,14.98
2023-04-29T09:25:57.660Z,15.13
2023-04-29T09:29:18.402Z,15.37
2023-04-29T09:32:21.441Z,15.57
2023-04-29T09:35:27.229Z,15.42
2023-04-29T09:38:28.890Z,15.46
2023-04-29T09:41:30.522Z,15.63
2023-04-29T09:44:37.999Z,15.65
2023-04-29T09:47:39.794Z,15.57
2023-04-29T09:50:43.905Z,15.55
2023-04-29T09:53:45.880Z,15.49
2023-04-29T09:56:53.110Z,15.65
2023-04-29T09:59:54.748Z,15.83
2023-04-29T10:02:59.349Z,15.66
2023-04-29T10:06:02.860Z,15.68
2023-04-29T10:09:07.318Z,15.43
2023-04-29T10:12:09.444Z,15.72
2023-04-29T10:15:36.519Z,15.82
2023-04-29T10:18:42.018Z,15.78
2023-04-29T10:21:43.922Z,15.71
2023-04-29T10:24:47.042Z,15.85
2023-04-29T10:27:49.989Z,15.83
2023-04-29T10:30:54.088Z,16.08
2023-04-29T10:34:01.049Z,16.29
2023-04-29T10:37:03.235Z,16.31
2023-04-29T10:40:13.376Z,16.48
2023-04-29T10:43:15.887Z,16.73
2023-04-29T10:46:22.446Z,16.76
2023-04-29T10:49:25.508Z,16.23
2023-04-29T10:52:27.895Z,16.43
2023-04-29T10:55:29.747Z,16.44
2023-04-29T10:58:45.033Z,16.13
2023-04-29T11:01:53.644Z,16.18
2023-04-29T11:05:12.506Z,15.71
2023-04-29T11:08:24.338Z,16.12
2023-04-29T11:11:28.267Z,16.30
2023-04-29T11:14:31.174Z,16.58
2023-04-29T11:17:38.169Z,16.73
2023-04-29T11:21:04.753Z,16.71
2023-04-29T11:24:07.300Z,16.76
2023-04-29T11:27:09.578Z,16.84
2023-04-29T11:30:11.618Z,16.68
2023-04-29T11:33:13.936Z,16.63
2023-04-29T11:36:15.879Z,16.66
2023-04-29T11:39:17.580Z,16.53
2023-04-29T11:42:22.822Z,16.83
2023-04-29T11:45:24.771Z,16.83
2023-04-29T11:48:27.020Z,16.81
2023-04-29T11:51:28.884Z,16.92
2023-04-29T11:54:30.814Z,17.00
2023-04-29T11:57:32.745Z,17.00
2023-04-29T12:00:35.099Z,16.99
2023-04-29T12:03:37.028Z,16.85
2023-04-29T12:06:38.778Z,16.95
2023-04-29T12:09:44.915Z,17.47
2023-04-29T12:12:47.403Z,17.98
2023-04-29T12:15:50.327Z,17.85
2023-04-29T12:18:53.407Z,17.13
2023-04-29T12:21:59.149Z,17.13
2023-04-29T12:25:03.897Z,17.33
2023-04-29T12:28:07.150Z,17.62
2023-04-29T12:31:11.665Z,17.75
2023-04-29T12:34:13.334Z,17.48
2023-04-29T12:37:15.299Z,17.24
2023-04-29T12:40:17.565Z,17.29
2023-04-29T12:43:19.354Z,16.97
2023-04-29T12:46:21.266Z,16.93
2023-04-29T12:49:24.824Z,17.14
2023-04-29T12:52:26.440Z,16.87
2023-04-29T12:55:28.245Z,17.24
2023-04-29T12:58:30.727Z,17.37
2023-04-29T13:01:32.663Z,17.42
2023-04-29T13:04:34.566Z,17.08
2023-04-29T13:07:37.125Z,16.84
2023-04-29T13:10:38.840Z,16.77
2023-04-29T13:13:40.759Z,16.96
2023-04-29T13:16:52.548Z,17.38
2023-04-29T13:20:06.474Z,17.47
2023-04-29T13:23:14.035Z,17.52
2023-04-29T13:26:18.642Z,17.63
2023-04-29T13:29:20.851Z,17.79
2023-04-29T13:32:24.744Z,17.45
2023-04-29T13:35:26.543Z,17.43
2023-04-29T13:38:28.556Z,17.56
2023-04-29T13:41:34.431Z,17.51
2023-04-29T13:44:59.931Z,17.62
2023-04-29T13:48:09.641Z,17.54
2023-04-29T13:51:45.962Z,17.45
2023-04-29T14:03:55.462Z,17.40
2023-04-29T14:06:57.836Z,17.16
2023-04-29T14:09:59.814Z,17.18
2023-04-29T14:13:01.512Z,17.40
2023-04-29T14:16:07.009Z,16.99
2023-04-29T14:19:09.092Z,16.71
2023-04-29T14:22:10.766Z,16.89
2023-04-29T14:25:12.554Z,16.88
2023-04-29T14:28:14.237Z,16.85
2023-04-29T14:31:18.167Z,16.54
2023-04-29T14:34:19.961Z,16.27
2023-04-29T14:37:21.628Z,16.70
2023-04-29T14:40:23.278Z,16.75
2023-04-29T14:43:24.898Z,16.95
2023-04-29T14:46:28.987Z,16.97
2023-04-29T14:49:31.759Z,17.00
2023-04-29T14:52:33.545Z,17.04
2023-04-29T14:55:35.256Z,17.24
2023-04-29T14:58:36.853Z,17.41
2023-04-29T15:01:39.884Z,16.95
2023-04-29T15:04:45.759Z,17.30
2023-04-29T15:07:47.636Z,17.34
2023-04-29T15:10:50.046Z,17.32
2023-04-29T15:13:52.037Z,16.93
2023-04-29T15:16:53.704Z,16.58
2023-04-29T15:19:55.419Z,16.42
2023-04-29T15:22:56.962Z,16.55
2023-04-29T15:25:58.760Z,16.11
2023-04-29T15:29:00.817Z,16.43
2023-04-29T15:32:02.595Z,16.36
2023-04-29T15:35:06.681Z,16.37
2023-04-29T15:38:08.396Z,16.40
2023-04-29T15:41:10.063Z,16.93
2023-04-29T15:44:11.767Z,16.56
2023-04-29T15:47:13.552Z,16.24
2023-04-29T15:50:15.555Z,16.03
2023-04-29T15:53:17.283Z,16.25
2023-04-29T15:56:19.068Z,16.79
2023-04-29T15:59:20.765Z,16.68
2023-04-29T16:02:22.448Z,16.44
2023-04-29T16:05:24.054Z,16.12
2023-04-29T16:08:26.263Z,16.37
2023-04-29T16:11:27.950Z,16.38
2023-04-29T16:14:30.229Z,16.59
2023-04-29T16:17:32.534Z,16.33
2023-04-29T16:20:34.277Z,16.07
2023-04-29T16:23:35.922Z,15.67
2023-04-29T16:26:38.646Z,15.55
2023-04-29T16:29:40.395Z,15.40
2023-04-29T16:32:43.045Z,15.34
2023-04-29T16:35:44.772Z,15.37
2023-04-29T16:38:46.358Z,15.55
2023-04-29T16:41:48.064Z,15.63
2023-04-29T16:44:50.018Z,15.45
2023-04-29T16:47:52.367Z,14.86
2023-04-29T16:50:54.041Z,14.80
2023-04-29T16:53:55.657Z,14.84
2023-04-29T16:56:57.406Z,14.59
2023-04-29T16:59:59.100Z,14.58
2023-04-29T17:03:00.987Z,14.67
2023-04-29T17:06:02.968Z,14.49
2023-04-29T17:09:04.679Z,14.47
2023-04-29T17:12:09.487Z,14.59
2023-04-29T17:15:11.327Z,14.53
2023-04-29T17:18:13.868Z,14.33
2023-04-29T17:21:15.705Z,14.07
2023-04-29T17:24:18.005Z,13.90
2023-04-29T17:27:19.678Z,13.98
2023-04-29T17:30:21.396Z,13.84
2023-04-29T17:33:23.135Z,13.95
2023-04-29T17:36:25.114Z,13.98
2023-04-29T17:39:26.821Z,13.85
2023-04-29T17:42:28.469Z,13.71
2023-04-29T17:45:30.304Z,13.57
2023-04-29T17:48:32.446Z,13.47
2023-04-29T17:51:34.345Z,13.51
2023-04-29T17:54:39.642Z,13.39
2023-04-29T17:57:41.904Z,13.29
2023-04-29T18:00:43.691Z,13.25
2023-04-29T18:03:47.111Z,13.22
2023-04-29T18:06:48.821Z,13.11
2023-04-29T18:09:50.506Z,12.94
2023-04-29T18:12:52.098Z,12.99
2023-04-29T18:15:54.109Z,12.93
2023-04-29T18:18:56.970Z,12.96
2023-04-29T18:22:01.330Z,12.94
2023-04-29T18:25:03.135Z,12.90
2023-04-29T18:28:19.386Z,12.78
2023-04-29T18:31:26.558Z,12.87
2023-04-29T18:34:28.437Z,12.88
2023-04-29T18:37:30.624Z,12.65
2023-04-29T18:40:32.389Z,12.65
2023-04-29T18:43:34.682Z,12.62
2023-04-29T18:46:36.509Z,12.61
2023-04-29T18:49:38.453Z,12.45
2023-04-29T18:52:40.190Z,12.36
2023-04-29T18:55:41.942Z,12.35
2023-04-29T18:58:43.579Z,12.30
2023-04-29T19:01:48.771Z,12.30
2023-04-29T19:04:50.699Z,12.17
2023-04-29T19:07:52.277Z,12.07
2023-04-29T19:10:54.103Z,12.09
2023-04-29T19:13:56.138Z,12.15
2023-04-29T19:16:57.789Z,12.12
2023-04-29T19:19:59.543Z,12.02
2023-04-29T19:23:01.261Z,12.03
2023-04-29T19:26:03.323Z,12.08
2023-04-29T19:29:05.336Z,11.96
2023-04-29T19:32:06.986Z,12.08
2023-04-29T19:35:08.880Z,12.11
2023-04-29T19:38:11.061Z,12.11
2023-04-29T19:41:12.772Z,12.12
2023-04-29T19:44:14.481Z,12.07
2023-04-29T19:47:16.212Z,12.11
2023-04-29T19:50:17.896Z,12.09
2023-04-29T19:53:19.916Z,12.05
2023-04-29T19:56:21.570Z,12.06
2023-04-29T19:59:23.293Z,12.02
2023-04-29T20:02:25.057Z,12.00
2023-04-29T20:05:26.869Z,11.96
2023-04-29T20:08:28.635Z,11.91
2023-04-29T20:11:30.353Z,11.86
2023-04-29T20:14:32.929Z,11.81
2023-04-29T20:17:34.687Z,11.86
2023-04-29T20:20:36.532Z,11.80
2023-04-29T20:23:38.169Z,11.80
2023-04-29T20:26:39.758Z,11.83
2023-04-29T20:29:41.587Z,11.78
2023-04-29T20:32:43.320Z,11.86
2023-04-29T20:35:44.969Z,11.89
2023-04-29T20:38:48.644Z,11.83
2023-04-29T20:41:50.447Z,11.81
2023-04-29T20:44:52.382Z,11.86
2023-04-29T20:47:54.563Z,11.87
2023-04-29T20:50:56.474Z,11.84
2023-04-29T20:53:58.499Z,11.79
2023-04-29T20:57:00.270Z,11.82
2023-04-29T21:00:01.931Z,11.78
2023-04-29T21:03:03.752Z,11.75
2023-04-29T21:06:05.500Z,11.84
2023-04-29T21:09:07.236Z,11.78
2023-04-29T21:12:08.884Z,11.75
2023-04-29T21:15:11.392Z,11.68
2023-04-29T21:18:14.059Z,11.68
2023-04-29T21:21:15.767Z,11.66
2023-04-29T21:24:17.519Z,11.73
2023-04-29T21:27:19.307Z,11.75
2023-04-29T21:30:20.957Z,11.80
2023-04-29T21:33:23.050Z,11.75
2023-04-29T21:36:24.636Z,11.76
2023-04-29T21:39:26.267Z,11.70
2023-04-29T21:42:28.099Z,11.72
2023-04-29T21:45:29.892Z,11.70
2023-04-29T21:48:32.463Z,11.77
2023-04-29T21:51:34.678Z,11.75
2023-04-29T21:54:36.663Z,11.72
2023-04-29T21:57:44.509Z,11.69
2023-04-29T22:00:58.178Z,11.71
2023-04-29T22:04:00.022Z,11.68
2023-04-29T22:07:01.726Z,11.62
2023-04-29T22:10:03.517Z,11.58
2023-04-29T22:13:05.161Z,11.56
2023-04-29T22:16:07.046Z,11.55
2023-04-29T22:19:08.701Z,11.54
2023-04-29T22:22:10.431Z,11.53
2023-04-29T22:25:12.192Z,11.51
2023-04-29T22:28:13.921Z,11.46
2023-04-29T22:31:15.574Z,11.48
2023-04-29T22:34:17.273Z,11.48
2023-04-29T22:37:18.982Z,11.47
2023-04-29T22:40:20.633Z,11.49
2023-04-29T22:43:22.537Z,11.45
2023-04-29T22:46:25.077Z,11.50
2023-04-29T22:49:27.116Z,11.40
2023-04-29T22:52:28.796Z,11.25
2023-04-29T22:55:30.452Z,11.12
2023-04-29T22:58:33.760Z,11.15
2023-04-29T23:01:35.541Z,11.11
2023-04-29T23:04:37.297Z,11.11
2023-04-29T23:07:38.996Z,11.14
2023-04-29T23:10:40.804Z,11.17
2023-04-29T23:13:42.504Z,11.17
2023-04-29T23:16:44.116Z,11.20
2023-04-29T23:19:46.046Z,11.23
2023-04-29T23:22:47.781Z,11.19
2023-04-29T23:25:49.667Z,11.26
2023-04-29T23:28:51.405Z,11.17
2023-04-29T23:31:53.115Z,11.25
2023-04-29T23:34:54.757Z,11.20
2023-04-29T23:37:56.405Z,11.18
2023-04-29T23:40:58.001Z,11.13
2023-04-29T23:44:02.599Z,11.11
2023-04-29T23:47:04.371Z,11.15
2023-04-29T23:50:06.856Z,11.12
2023-04-29T23:53:08.512Z,11.07
2023-04-29T23:56:10.323Z,11.11
2023-04-29T23:59:12.024Z,11.14
